Time;durP1;ratioP1;P1;durP2;ratioP2;P2;SDS_P1;SDS_P2;PMS_P1;PMS_P2;Temp;Humidity;BMP_temperature;BMP_pressure;BME280_temperature;BME280_humidity;BME280_pressure;Samples;Min_cycle;Max_cycle;Signal;HPM_P1;HPM_P2
2023/04/08 00:00:18;;;;;;;4.32;3.92;;;5.50;99.90;;;;;;5038634;28;20029;-41
2023/04/08 00:02:44;;;;;;;4.47;3.75;;;5.40;99.90;;;;;;5041403;28;20417;-41
2023/04/08 00:05:10;;;;;;;5.45;4.03;;;5.40;99.90;;;;;;5033108;28;20045;-41
2023/04/08 00:07:36;;;;;;;4.18;3.78;;;5.40;99.90;;;;;;5047459;28;20079;-41
2023/04/08 00:10:02;;;;;;;7.90;4.18;;;5.30;99.90;;;;;;5043302;28;20036;-41
2023/04/08 00:12:28;;;;;;;4.47;4.07;;;5.30;99.90;;;;;;5035838;28;20025;-41
2023/04/08 00:14:53;;;;;;;4.93;3.63;;;5.40;99.90;;;;;;5042755;28;20044;-41
2023/04/08 00:17:19;;;;;;;6.85;4.10;;;5.40;99.90;;;;;;5041972;28;20036;-41
2023/04/08 00:19:45;;;;;;;4.20;3.47;;;5.40;99.90;;;;;;5044779;28;20029;-41
2023/04/08 00:22:10;;;;;;;4.15;3.70;;;5.40;99.90;;;;;;5044191;28;20032;-41
2023/04/08 00:24:36;;;;;;;10.25;4.05;;;5.40;99.90;;;;;;5042534;28;20390;-41
2023/04/08 00:27:02;;;;;;;6.43;3.85;;;5.50;99.90;;;;;;5047357;28;20091;-41
2023/04/08 00:29:28;;;;;;;6.63;4.10;;;5.50;99.90;;;;;;5043612;28;20079;-41
2023/04/08 00:31:54;;;;;;;7.03;4.13;;;5.50;99.90;;;;;;5032966;28;20534;-41
2023/04/08 00:34:19;;;;;;;4.57;4.15;;;5.50;99.90;;;;;;5047986;28;20115;-41
2023/04/08 00:36:46;;;;;;;4.97;4.18;;;5.60;99.90;;;;;;5039051;28;20034;-41
2023/04/08 00:39:13;;;;;;;34.17;25.83;;;5.30;99.90;;;;;;5042989;28;20174;-41
2023/04/08 00:41:38;;;;;;;17.10;13.23;;;5.30;99.90;;;;;;5038725;28;20259;-41
2023/04/08 00:44:04;;;;;;;11.02;8.82;;;5.20;99.90;;;;;;5045032;28;20080;-41
2023/04/08 00:46:35;;;;;;;10.38;8.98;;;5.30;99.90;;;;;;5038047;28;20092;-41
2023/04/08 00:49:01;;;;;;;7.38;6.65;;;5.30;99.90;;;;;;5049408;28;20048;-40
2023/04/08 00:51:28;;;;;;;8.18;6.65;;;5.30;99.90;;;;;;5038862;28;20171;-41
2023/04/08 00:53:54;;;;;;;6.50;5.28;;;5.30;99.90;;;;;;5043006;28;20039;-41
2023/04/08 00:56:21;;;;;;;8.18;7.38;;;5.30;99.90;;;;;;5041155;28;20029;-41
2023/04/08 00:58:47;;;;;;;8.93;7.88;;;5.30;99.90;;;;;;5036406;28;20024;-41
2023/04/08 01:01:21;;;;;;;7.78;6.93;;;5.10;99.90;;;;;;5043514;28;20167;-32
2023/04/08 01:04:04;;;;;;;7.57;6.00;;;5.10;99.90;;;;;;5031424;28;20403;-31
2023/04/08 01:06:41;;;;;;;6.55;5.15;;;5.10;99.90;;;;;;5041606;28;20484;-32
2023/04/08 01:09:08;;;;;;;5.00;4.22;;;5.00;99.90;;;;;;5036715;28;20045;-33
2023/04/08 01:11:37;;;;;;;4.55;4.10;;;5.10;99.90;;;;;;5036634;28;20031;-31
2023/04/08 01:14:08;;;;;;;8.07;4.63;;;5.10;99.90;;;;;;5027383;28;20033;-32
2023/04/08 01:16:37;;;;;;;6.07;4.32;;;5.00;99.90;;;;;;5030618;28;20033;-31
2023/04/08 01:19:06;;;;;;;5.63;4.15;;;5.00;99.90;;;;;;5029158;28;20029;-33
2023/04/08 01:21:33;;;;;;;6.85;5.28;;;5.00;99.90;;;;;;5046447;28;20417;-30
2023/04/08 01:24:10;;;;;;;5.65;4.18;;;5.00;99.90;;;;;;5037500;28;20032;-31
2023/04/08 01:26:36;;;;;;;5.53;4.22;;;4.90;99.90;;;;;;5044614;28;20025;-30
2023/04/08 01:29:03;;;;;;;8.18;4.30;;;4.90;99.90;;;;;;5040603;28;20589;-30
2023/04/08 01:31:30;;;;;;;6.45;4.35;;;4.80;99.90;;;;;;5042716;28;20154;-32
2023/04/08 01:33:58;;;;;;;6.72;4.38;;;4.90;99.90;;;;;;5029481;28;20124;-32
2023/04/08 01:36:25;;;;;;;7.28;4.47;;;4.80;99.90;;;;;;5029401;28;20017;-31
2023/04/08 01:38:51;;;;;;;5.70;4.43;;;4.90;99.90;;;;;;5034209;28;20541;-31
2023/04/08 01:41:18;;;;;;;6.40;4.90;;;4.80;99.90;;;;;;5028748;28;20086;-31
2023/04/08 01:43:45;;;;;;;6.75;4.90;;;4.70;99.90;;;;;;5043177;28;20036;-31
2023/04/08 01:46:12;;;;;;;7.30;4.45;;;4.70;99.90;;;;;;5041118;28;20087;-31
2023/04/08 01:48:39;;;;;;;7.63;5.28;;;4.70;99.90;;;;;;5045996;28;20036;-31
2023/04/08 01:51:06;;;;;;;10.13;5.57;;;4.70;99.90;;;;;;5037966;28;20536;-32
2023/04/08 01:53:32;;;;;;;21.30;9.02;;;4.60;99.90;;;;;;5039529;28;20044;-34
2023/04/08 01:56:06;;;;;;;21.48;8.32;;;4.70;99.90;;;;;;5037983;28;20029;-32
2023/04/08 01:58:38;;;;;;;8.00;4.80;;;4.70;99.90;;;;;;5039909;28;20024;-31
2023/04/08 02:01:09;;;;;;;10.40;5.13;;;4.70;99.90;;;;;;5044328;28;20031;-32
2023/04/08 02:03:35;;;;;;;8.43;5.40;;;4.60;99.90;;;;;;5042414;28;21181;-32
2023/04/08 02:06:01;;;;;;;5.95;4.63;;;4.60;99.90;;;;;;5040651;28;20493;-33
2023/04/08 02:08:26;;;;;;;6.50;4.43;;;4.60;99.90;;;;;;5040450;28;20033;-31
2023/04/08 02:10:52;;;;;;;6.07;4.82;;;4.60;99.90;;;;;;5035744;28;20037;-32
2023/04/08 02:13:17;;;;;;;7.30;5.25;;;4.60;99.90;;;;;;5042403;28;20482;-32
2023/04/08 02:15:50;;;;;;;6.60;5.07;;;4.50;99.90;;;;;;5040351;28;20036;-31
2023/04/08 02:18:25;;;;;;;6.35;5.15;;;4.50;99.90;;;;;;5042068;28;20059;-31
2023/04/08 02:20:58;;;;;;;6.20;4.70;;;4.40;99.90;;;;;;5045181;28;20083;-32
2023/04/08 02:23:28;;;;;;;8.15;5.82;;;4.40;99.90;;;;;;5041429;28;20167;-31
2023/04/08 02:25:55;;;;;;;5.88;5.07;;;4.40;99.90;;;;;;5056185;28;20043;-32
2023/04/08 02:28:22;;;;;;;7.43;5.60;;;4.30;99.90;;;;;;5033739;28;20585;-32
2023/04/08 02:30:50;;;;;;;6.80;4.80;;;4.40;99.90;;;;;;5041159;28;20393;-30
2023/04/08 02:33:19;;;;;;;8.00;5.50;;;4.30;99.90;;;;;;5045800;28;20387;-31
2023/04/08 02:35:46;;;;;;;6.40;5.22;;;4.30;99.90;;;;;;5033568;28;20025;-31
2023/04/08 02:38:11;;;;;;;6.07;5.03;;;4.30;99.90;;;;;;5040312;28;20064;-31
2023/04/08 02:40:37;;;;;;;6.28;4.63;;;4.30;99.90;;;;;;5048827;28;20053;-31
2023/04/08 02:43:03;;;;;;;6.05;4.72;;;4.20;99.90;;;;;;5040134;28;20029;-31
2023/04/08 02:45:31;;;;;;;8.02;5.05;;;4.20;99.90;;;;;;5051754;28;20032;-31
2023/04/08 02:47:59;;;;;;;7.57;5.35;;;4.10;99.90;;;;;;5040443;28;20043;-32
2023/04/08 02:50:25;;;;;;;6.03;4.82;;;4.10;99.90;;;;;;5051508;28;20075;-33
2023/04/08 02:52:50;;;;;;;8.00;5.30;;;4.00;99.90;;;;;;5043802;28;20041;-32
2023/04/08 02:55:16;;;;;;;8.45;5.07;;;4.00;99.90;;;;;;5040565;28;20098;-32
2023/04/08 02:57:42;;;;;;;7.15;4.50;;;3.90;99.90;;;;;;5044814;28;20037;-32
2023/04/08 03:00:08;;;;;;;7.68;4.95;;;3.80;99.90;;;;;;5042156;28;20067;-32
2023/04/08 03:02:34;;;;;;;7.80;5.38;;;3.80;99.90;;;;;;5036494;28;20112;-31
2023/04/08 03:05:00;;;;;;;7.88;5.75;;;3.70;99.90;;;;;;5043557;28;20128;-31
2023/04/08 03:07:26;;;;;;;10.05;5.80;;;3.70;99.90;;;;;;5044995;28;20052;-32
2023/04/08 03:09:53;;;;;;;6.00;5.38;;;3.70;99.90;;;;;;5043679;28;20076;-31
2023/04/08 03:12:20;;;;;;;9.18;5.47;;;3.60;99.90;;;;;;5040438;28;20475;-32
2023/04/08 03:14:45;;;;;;;8.68;5.63;;;3.60;99.90;;;;;;5040655;28;20079;-31
2023/04/08 03:17:11;;;;;;;7.65;5.60;;;3.50;99.90;;;;;;5039981;28;20065;-32
2023/04/08 03:19:37;;;;;;;6.80;5.70;;;3.60;99.90;;;;;;5043988;28;20030;-32
2023/04/08 03:22:02;;;;;;;8.15;5.18;;;3.50;99.90;;;;;;5028761;28;20026;-31
2023/04/08 03:24:28;;;;;;;8.70;5.47;;;3.50;99.90;;;;;;5043961;28;20071;-31
2023/04/08 03:26:53;;;;;;;8.27;5.38;;;3.50;99.90;;;;;;5047039;28;20033;-32
2023/04/08 03:29:19;;;;;;;7.68;5.63;;;3.40;99.90;;;;;;5041423;28;20034;-32
2023/04/08 03:31:45;;;;;;;7.03;5.25;;;3.40;99.90;;;;;;5036965;28;20045;-32
2023/04/08 03:34:10;;;;;;;9.82;5.60;;;3.40;99.90;;;;;;5037014;28;20536;-31
2023/04/08 03:36:36;;;;;;;7.95;5.20;;;3.50;99.90;;;;;;5043180;28;20068;-31
2023/04/08 03:39:02;;;;;;;10.05;5.53;;;3.50;99.90;;;;;;5047416;28;20060;-31
2023/04/08 03:41:28;;;;;;;7.70;4.78;;;3.50;99.90;;;;;;5051309;28;20025;-31
2023/04/08 03:43:54;;;;;;;9.30;5.68;;;3.40;99.90;;;;;;5044769;28;20091;-31
2023/04/08 03:46:19;;;;;;;5.90;4.55;;;3.30;99.90;;;;;;5044764;28;20021;-32
2023/04/08 03:48:45;;;;;;;8.20;5.63;;;3.30;99.90;;;;;;5043358;28;20039;-32
2023/04/08 03:51:10;;;;;;;10.70;6.05;;;3.30;99.90;;;;;;5057855;28;20033;-31
2023/04/08 03:53:36;;;;;;;8.65;5.82;;;3.20;99.90;;;;;;5043773;28;20028;-32
2023/04/08 03:56:03;;;;;;;8.63;5.63;;;3.30;99.90;;;;;;5044575;28;20408;-31
2023/04/08 03:58:29;;;;;;;6.68;5.65;;;3.40;99.90;;;;;;5043032;28;20028;-31
2023/04/08 04:00:54;;;;;;;8.63;5.25;;;3.30;99.90;;;;;;5038323;28;20037;-32
2023/04/08 04:03:20;;;;;;;9.15;6.07;;;3.40;99.90;;;;;;5042443;28;20501;-31
2023/04/08 04:05:45;;;;;;;9.15;5.53;;;3.50;99.90;;;;;;5045684;28;20022;-31
2023/04/08 04:08:11;;;;;;;6.95;5.22;;;3.50;99.90;;;;;;5044640;28;20033;-31
2023/04/08 04:10:37;;;;;;;6.43;4.88;;;3.50;99.90;;;;;;5036243;28;20029;-32
2023/04/08 04:13:02;;;;;;;8.00;5.57;;;3.40;99.90;;;;;;5045616;28;20121;-31
2023/04/08 04:15:28;;;;;;;8.20;4.93;;;3.40;99.90;;;;;;5041497;28;20044;-31
2023/04/08 04:17:53;;;;;;;7.30;4.40;;;3.40;99.90;;;;;;5045237;28;20037;-31
2023/04/08 04:20:20;;;;;;;6.35;5.50;;;3.30;99.90;;;;;;5043599;28;20465;-32
2023/04/08 04:22:46;;;;;;;8.95;4.88;;;3.30;99.90;;;;;;5049116;28;20029;-32
2023/04/08 04:25:12;;;;;;;6.68;4.90;;;3.30;99.90;;;;;;5039898;28;20166;-31
2023/04/08 04:27:38;;;;;;;5.07;4.50;;;3.30;99.90;;;;;;5048875;28;20082;-32
2023/04/08 04:30:04;;;;;;;9.02;5.45;;;3.40;99.90;;;;;;5041127;28;20044;-31
2023/04/08 04:32:30;;;;;;;8.18;5.60;;;3.50;99.90;;;;;;5044093;28;20120;-31
2023/04/08 04:34:55;;;;;;;8.82;5.85;;;3.50;99.90;;;;;;5039583;28;20509;-33
2023/04/08 04:37:21;;;;;;;6.63;4.75;;;3.50;99.90;;;;;;5043949;28;20107;-31
2023/04/08 04:39:47;;;;;;;7.93;5.15;;;3.50;99.90;;;;;;5044282;28;20033;-32
2023/04/08 04:42:12;;;;;;;8.18;5.28;;;3.60;99.90;;;;;;5049394;28;20045;-32
2023/04/08 04:44:38;;;;;;;4.93;4.18;;;3.50;99.90;;;;;;5047203;28;20033;-32
2023/04/08 04:47:04;;;;;;;6.07;4.53;;;3.50;99.90;;;;;;5048246;28;20493;-35
2023/04/08 04:49:30;;;;;;;6.97;5.80;;;3.40;99.90;;;;;;5043364;28;20029;-31
2023/04/08 04:51:55;;;;;;;6.95;5.20;;;3.50;99.90;;;;;;5036828;28;20102;-31
2023/04/08 04:54:21;;;;;;;7.72;5.28;;;3.50;99.90;;;;;;5039800;28;20029;-32
2023/04/08 04:56:46;;;;;;;7.13;5.68;;;3.60;99.90;;;;;;5054083;28;20024;-32
2023/04/08 04:59:12;;;;;;;9.65;6.30;;;3.70;99.90;;;;;;5033877;28;20411;-32
2023/04/08 05:01:39;;;;;;;6.43;5.45;;;3.70;99.90;;;;;;5040443;28;20064;-31
2023/04/08 05:04:05;;;;;;;6.55;4.95;;;3.70;99.90;;;;;;5041584;28;20033;-32
2023/04/08 05:06:31;;;;;;;8.98;6.18;;;3.70;99.90;;;;;;5040009;28;20052;-32
2023/04/08 05:08:57;;;;;;;11.98;6.13;;;3.80;99.90;;;;;;5038807;28;20075;-32
2023/04/08 05:11:22;;;;;;;9.23;6.53;;;3.80;99.90;;;;;;5031868;28;20021;-31
2023/04/08 05:13:48;;;;;;;10.13;5.95;;;3.80;99.90;;;;;;5036837;28;20064;-33
2023/04/08 05:16:15;;;;;;;9.55;6.10;;;3.80;99.90;;;;;;5045415;28;20108;-31
2023/04/08 05:18:40;;;;;;;8.50;5.80;;;3.80;99.90;;;;;;5043471;28;20433;-31
2023/04/08 05:21:06;;;;;;;8.32;5.68;;;3.70;99.90;;;;;;5045807;28;20020;-32
2023/04/08 05:23:33;;;;;;;8.63;5.88;;;3.70;99.90;;;;;;5060048;28;20029;-33
2023/04/08 05:25:58;;;;;;;13.52;6.47;;;3.70;99.90;;;;;;5041281;28;20458;-31
2023/04/08 05:28:24;;;;;;;11.77;6.72;;;3.80;99.90;;;;;;5032401;28;20119;-32
2023/04/08 05:30:51;;;;;;;8.80;6.22;;;3.80;99.90;;;;;;5026971;28;20045;-31
2023/04/08 05:33:17;;;;;;;8.18;6.47;;;3.90;99.90;;;;;;5038298;28;20359;-32
2023/04/08 05:35:43;;;;;;;8.05;6.05;;;3.90;99.90;;;;;;5039111;28;20114;-32
2023/04/08 05:38:09;;;;;;;11.00;7.47;;;3.90;99.90;;;;;;5037213;28;20041;-31
2023/04/08 05:40:35;;;;;;;9.90;6.55;;;4.00;99.90;;;;;;5038825;28;20035;-36
2023/04/08 05:43:00;;;;;;;11.45;7.25;;;4.10;99.90;;;;;;5043537;28;20474;-32
2023/04/08 05:45:27;;;;;;;12.70;7.45;;;4.10;99.90;;;;;;5041815;28;20036;-32
2023/04/08 05:47:53;;;;;;;8.50;6.28;;;4.20;99.90;;;;;;5035804;28;20036;-31
2023/04/08 05:50:19;;;;;;;9.73;7.40;;;4.30;99.90;;;;;;5041547;28;20487;-32
2023/04/08 05:52:45;;;;;;;11.30;7.35;;;4.30;99.90;;;;;;5032814;28;21017;-31
2023/04/08 05:55:12;;;;;;;15.95;7.75;;;4.30;99.90;;;;;;5027710;28;21372;-31
2023/04/08 05:57:37;;;;;;;12.57;7.90;;;4.40;99.90;;;;;;5031148;28;20033;-31
2023/04/08 06:00:08;;;;;;;14.40;8.23;;;4.40;99.90;;;;;;5037409;28;20017;-31
2023/04/08 06:02:35;;;;;;;16.70;9.23;;;4.50;99.90;;;;;;5043952;28;20045;-31
2023/04/08 06:05:01;;;;;;;14.85;8.60;;;4.60;99.90;;;;;;5038593;28;20078;-31
2023/04/08 06:07:27;;;;;;;16.50;8.48;;;4.60;99.90;;;;;;5046495;28;20037;-30
2023/04/08 06:09:52;;;;;;;15.52;8.63;;;4.70;99.90;;;;;;5049050;28;20037;-31
2023/04/08 06:12:18;;;;;;;12.38;7.82;;;4.70;99.90;;;;;;5042781;28;20034;-32
2023/04/08 06:14:46;;;;;;;12.65;8.07;;;4.80;99.90;;;;;;5045109;28;20025;-31
2023/04/08 06:17:12;;;;;;;18.80;9.15;;;4.90;99.90;;;;;;5041622;28;20533;-31
2023/04/08 06:19:37;;;;;;;15.32;8.90;;;5.00;99.90;;;;;;5042622;28;20060;-33
2023/04/08 06:22:03;;;;;;;14.48;8.68;;;5.10;99.90;;;;;;5039539;28;20025;-31
2023/04/08 06:24:29;;;;;;;16.27;9.68;;;5.20;99.90;;;;;;5046657;28;20059;-32
2023/04/08 06:26:55;;;;;;;14.70;8.57;;;5.20;99.90;;;;;;5043961;28;20037;-31
2023/04/08 06:29:23;;;;;;;17.38;9.85;;;5.40;99.90;;;;;;5046554;28;20061;-31
2023/04/08 06:31:49;;;;;;;;;;;5.40;99.90;;;;;;5050572;28;20042;-31
2023/04/08 06:34:15;;;;;;;19.40;9.93;;;5.50;99.90;;;;;;5039168;28;20007;-32
2023/04/08 06:36:41;;;;;;;15.13;8.82;;;5.60;99.90;;;;;;5042606;28;20116;-32
2023/04/08 06:39:07;;;;;;;18.20;10.77;;;5.70;99.90;;;;;;5057695;28;20377;-31
2023/04/08 06:41:32;;;;;;;17.23;10.30;;;5.70;99.90;;;;;;5046259;28;20039;-31
2023/04/08 06:43:58;;;;;;;14.82;8.63;;;5.80;99.90;;;;;;5046092;28;20414;-31
2023/04/08 06:46:24;;;;;;;16.95;9.50;;;5.80;99.90;;;;;;5046845;28;20180;-31
2023/04/08 06:48:50;;;;;;;20.95;10.75;;;5.90;99.90;;;;;;5042308;28;20029;-31
2023/04/08 06:51:15;;;;;;;18.95;9.75;;;5.90;99.90;;;;;;5047576;28;20060;-32
2023/04/08 06:53:41;;;;;;;19.23;10.27;;;6.00;99.90;;;;;;5043499;28;20392;-32
2023/04/08 06:56:07;;;;;;;16.88;10.18;;;6.10;99.90;;;;;;5045549;28;20116;-31
2023/04/08 06:58:32;;;;;;;14.77;9.48;;;6.20;99.90;;;;;;5046836;28;20032;-31
2023/04/08 07:00:59;;;;;;;18.90;10.30;;;6.20;99.90;;;;;;5045068;28;20040;-32
2023/04/08 07:03:25;;;;;;;14.43;9.35;;;6.20;99.90;;;;;;5062418;28;20020;-31
2023/04/08 07:05:52;;;;;;;18.77;10.10;;;6.30;99.90;;;;;;5041102;28;20555;-32
2023/04/08 07:08:17;;;;;;;16.80;9.77;;;6.30;99.90;;;;;;5045861;28;20026;-31
2023/04/08 07:10:43;;;;;;;18.38;10.50;;;6.40;99.90;;;;;;5051924;28;20044;-31
2023/04/08 07:13:09;;;;;;;15.38;9.18;;;6.40;99.90;;;;;;5041852;28;20064;-33
2023/04/08 07:15:35;;;;;;;18.73;10.63;;;6.50;99.90;;;;;;5042299;28;20052;-31
2023/04/08 07:18:01;;;;;;;15.73;8.88;;;6.60;99.90;;;;;;5050515;28;20037;-31
2023/04/08 07:20:27;;;;;;;14.68;9.27;;;6.70;99.90;;;;;;5044867;28;20057;-31
2023/04/08 07:22:53;;;;;;;17.73;9.38;;;6.70;99.90;;;;;;5045152;28;20076;-32
2023/04/08 07:25:18;;;;;;;17.92;10.35;;;6.70;99.90;;;;;;5046095;28;20478;-34
2023/04/08 07:27:44;;;;;;;16.60;10.32;;;6.80;99.90;;;;;;5041343;28;20037;-32
2023/04/08 07:30:10;;;;;;;17.52;10.57;;;6.80;99.90;;;;;;5040935;28;20452;-32
2023/04/08 07:32:36;;;;;;;16.02;9.68;;;6.90;99.90;;;;;;5045083;28;20518;-31
2023/04/08 07:35:02;;;;;;;19.00;10.10;;;6.90;99.90;;;;;;5042917;28;20088;-32
2023/04/08 07:37:28;;;;;;;18.13;9.15;;;7.00;99.90;;;;;;5045306;28;20029;-31
2023/04/08 07:39:54;;;;;;;18.80;9.70;;;7.00;99.90;;;;;;5038792;28;20025;-32
2023/04/08 07:42:20;;;;;;;15.45;10.18;;;7.10;99.90;;;;;;5041488;28;20025;-32
2023/04/08 07:44:46;;;;;;;19.75;9.82;;;7.20;99.90;;;;;;5039613;28;20017;-32
2023/04/08 07:47:12;;;;;;;18.25;9.70;;;7.20;99.90;;;;;;5042677;28;20067;-32
2023/04/08 07:49:38;;;;;;;18.42;10.23;;;7.30;99.90;;;;;;5038888;28;20036;-31
2023/04/08 07:52:04;;;;;;;13.95;9.00;;;7.40;99.90;;;;;;5055286;28;20501;-32
2023/04/08 07:54:32;;;;;;;15.88;9.45;;;7.40;99.90;;;;;;5037230;28;20423;-33
2023/04/08 07:56:58;;;;;;;17.45;10.18;;;7.40;99.90;;;;;;5047310;28;20378;-33
2023/04/08 07:59:24;;;;;;;13.38;8.77;;;7.50;99.90;;;;;;5043919;28;20037;-32
2023/04/08 08:01:50;;;;;;;16.00;9.95;;;7.50;99.90;;;;;;5040654;28;20049;-32
2023/04/08 08:04:16;;;;;;;16.67;9.20;;;7.60;99.90;;;;;;5043777;28;20060;-33
2023/04/08 08:06:42;;;;;;;17.20;10.88;;;7.60;99.90;;;;;;5046728;28;20114;-32
2023/04/08 08:09:08;;;;;;;14.48;9.48;;;7.60;99.90;;;;;;5039799;28;20300;-33
2023/04/08 08:11:33;;;;;;;17.10;9.70;;;7.60;99.90;;;;;;5046706;28;20136;-32
2023/04/08 08:13:59;;;;;;;14.20;8.90;;;7.70;99.90;;;;;;5038138;28;20487;-32
2023/04/08 08:16:29;;;;;;;14.93;9.60;;;7.80;99.90;;;;;;5044991;28;20056;-32
2023/04/08 08:18:55;;;;;;;14.43;9.98;;;7.80;99.90;;;;;;5048314;28;20535;-32
2023/04/08 08:21:20;;;;;;;17.83;9.85;;;7.90;99.90;;;;;;5050424;28;20045;-32
2023/04/08 08:23:46;;;;;;;16.08;10.35;;;7.80;99.90;;;;;;5045001;28;20063;-32
2023/04/08 08:26:11;;;;;;;19.15;9.27;;;7.80;99.90;;;;;;5048201;28;20116;-32
2023/04/08 08:28:39;;;;;;;15.77;9.73;;;7.70;99.90;;;;;;5043264;28;20041;-32
2023/04/08 08:31:05;;;;;;;16.88;10.15;;;7.70;99.90;;;;;;5049064;28;20121;-32
2023/04/08 08:33:31;;;;;;;17.27;10.32;;;7.70;99.90;;;;;;5038522;28;20107;-32
2023/04/08 08:35:57;;;;;;;15.95;9.77;;;7.70;99.90;;;;;;5040067;28;20033;-32
2023/04/08 08:38:23;;;;;;;16.17;9.63;;;7.60;99.90;;;;;;5046142;28;20584;-32
2023/04/08 08:40:56;;;;;;;14.60;9.32;;;7.60;99.90;;;;;;5045103;28;20401;-32
2023/04/08 08:43:26;;;;;;;15.30;9.23;;;7.70;99.90;;;;;;5045048;28;20140;-32
2023/04/08 08:45:52;;;;;;;10.82;7.78;;;7.70;99.90;;;;;;5039351;28;20025;-32
2023/04/08 08:48:18;;;;;;;12.13;7.93;;;7.60;99.90;;;;;;5043065;28;20038;-32
2023/04/08 08:50:44;;;;;;;14.98;8.40;;;7.40;99.90;;;;;;5050762;28;20611;-32
2023/04/08 08:53:10;;;;;;;12.38;8.18;;;7.20;99.90;;;;;;5036553;28;20034;-33
2023/04/08 08:55:38;;;;;;;14.00;9.05;;;6.90;99.90;;;;;;5051571;28;20029;-31
2023/04/08 08:58:04;;;;;;;14.68;9.82;;;6.80;99.90;;;;;;5042143;28;20033;-31
2023/04/08 09:00:43;;;;;;;15.32;9.73;;;6.70;99.90;;;;;;5036568;28;20433;-32
2023/04/08 09:03:15;;;;;;;15.40;9.25;;;6.60;99.90;;;;;;5038246;28;20114;-33
2023/04/08 09:05:48;;;;;;;13.23;8.68;;;6.60;99.90;;;;;;5040436;28;20029;-32
2023/04/08 09:08:35;;;;;;;16.85;9.25;;;6.70;99.90;;;;;;5042435;28;20029;-33
2023/04/08 09:11:11;;;;;;;14.75;8.82;;;6.70;99.90;;;;;;5051023;28;20509;-32
2023/04/08 09:13:36;;;;;;;15.75;8.95;;;6.80;99.90;;;;;;5039189;28;20025;-32
2023/04/08 09:16:04;;;;;;;13.95;8.77;;;6.80;99.90;;;;;;5058991;28;20074;-32
2023/04/08 09:18:31;;;;;;;16.10;9.52;;;6.90;99.90;;;;;;5038601;28;20021;-32
2023/04/08 09:20:59;;;;;;;12.70;8.07;;;7.00;99.90;;;;;;5040229;28;20103;-32
2023/04/08 09:23:37;;;;;;;14.23;9.07;;;7.10;99.90;;;;;;5040461;28;20037;-35
2023/04/08 09:26:14;;;;;;;14.00;8.15;;;7.10;99.90;;;;;;5041008;28;20041;-33
2023/04/08 09:28:41;;;;;;;16.55;8.90;;;7.20;99.90;;;;;;5044109;28;20040;-32
2023/04/08 09:31:22;;;;;;;15.10;9.07;;;7.20;99.90;;;;;;5040767;28;20112;-33
2023/04/08 09:33:49;;;;;;;13.18;8.90;;;7.20;99.90;;;;;;5039976;28;20435;-33
2023/04/08 09:36:16;;;;;;;12.98;8.40;;;7.20;99.90;;;;;;5039524;28;20421;-32
2023/04/08 09:38:42;;;;;;;13.13;8.73;;;7.20;99.90;;;;;;5038761;28;20030;-32
2023/04/08 09:41:11;;;;;;;17.13;8.38;;;7.10;99.90;;;;;;5049164;28;20476;-32
2023/04/08 09:43:47;;;;;;;16.70;9.07;;;7.10;99.90;;;;;;5035885;28;20458;-32
2023/04/08 09:46:15;;;;;;;14.27;8.85;;;7.00;99.90;;;;;;5043376;28;20088;-33
2023/04/08 09:48:49;;;;;;;15.03;8.87;;;7.00;99.90;;;;;;5042979;28;20078;-31
2023/04/08 09:51:16;;;;;;;15.75;9.32;;;7.00;99.90;;;;;;5041599;28;20045;-32
2023/04/08 09:53:47;;;;;;;17.35;9.38;;;7.00;99.90;;;;;;5038540;28;20131;-32
2023/04/08 09:56:16;;;;;;;14.80;9.32;;;7.00;99.90;;;;;;5043795;28;20041;-31
2023/04/08 09:58:51;;;;;;;14.82;9.05;;;7.10;99.90;;;;;;5047702;28;20029;-33
2023/04/08 10:01:23;;;;;;;13.00;8.40;;;7.20;99.90;;;;;;5038109;28;20488;-32
2023/04/08 10:03:53;;;;;;;13.68;8.57;;;7.30;99.90;;;;;;5043117;28;20040;-32
2023/04/08 10:06:20;;;;;;;13.20;8.82;;;7.40;99.90;;;;;;5041722;28;20028;-33
2023/04/08 10:08:46;;;;;;;13.68;8.60;;;7.40;99.90;;;;;;5037458;28;20033;-32
2023/04/08 10:11:15;;;;;;;17.85;9.88;;;7.50;99.90;;;;;;5037965;28;20052;-32
2023/04/08 10:13:41;;;;;;;16.38;8.30;;;7.50;99.90;;;;;;5044226;28;20036;-32
2023/04/08 10:16:17;;;;;;;12.27;7.95;;;7.60;99.90;;;;;;5038443;28;20597;-32
2023/04/08 10:18:43;;;;;;;13.25;8.98;;;7.50;99.90;;;;;;5039743;28;20064;-32
2023/04/08 10:21:31;;;;;;;10.27;7.18;;;7.50;99.90;;;;;;5045901;28;20021;-32
2023/04/08 10:23:58;;;;;;;;;;;7.50;99.90;;;;;;5043450;28;20029;-32
2023/04/08 10:26:33;;;;;;;14.82;8.45;;;7.60;99.90;;;;;;5039682;28;20072;-32
2023/04/08 10:29:17;;;;;;;10.85;7.45;;;7.70;99.90;;;;;;5041749;28;20033;-32
2023/04/08 10:31:43;;;;;;;14.02;8.77;;;7.80;99.90;;;;;;5041861;28;20487;-32
2023/04/08 10:34:49;;;;;;;12.18;7.97;;;7.90;99.90;;;;;;5039091;28;20029;-33
2023/04/08 10:37:15;;;;;;;13.95;9.07;;;8.00;99.90;;;;;;5041230;28;20029;-32
2023/04/08 10:39:48;;;;;;;11.48;9.10;;;8.10;99.90;;;;;;5043022;28;20030;-32
2023/04/08 10:42:14;;;;;;;13.52;9.02;;;8.20;99.90;;;;;;5040598;28;20033;-32
2023/04/08 10:44:44;;;;;;;17.13;9.73;;;8.10;99.90;;;;;;5051000;28;20102;-33
2023/04/08 10:47:11;;;;;;;15.32;9.63;;;8.20;99.90;;;;;;5045131;28;20040;-32
2023/04/08 10:49:37;;;;;;;13.50;9.60;;;8.40;99.90;;;;;;5042880;28;20064;-32
2023/04/08 10:52:06;;;;;;;14.82;9.60;;;8.60;99.90;;;;;;5047017;28;20443;-32
2023/04/08 10:54:32;;;;;;;12.27;8.73;;;8.40;99.90;;;;;;5043543;28;20033;-32
2023/04/08 10:56:58;;;;;;;14.40;9.05;;;8.20;99.90;;;;;;5045254;28;20025;-32
2023/04/08 10:59:31;;;;;;;13.82;8.45;;;8.20;99.90;;;;;;5044230;28;20421;-32
2023/04/08 11:01:58;;;;;;;16.67;9.60;;;8.30;99.90;;;;;;5048735;28;20025;-32
2023/04/08 11:04:25;;;;;;;14.27;9.07;;;8.30;99.90;;;;;;5043557;28;20025;-32
2023/04/08 11:06:50;;;;;;;14.35;9.95;;;8.40;99.90;;;;;;5042995;28;20029;-32
2023/04/08 11:09:16;;;;;;;14.18;8.88;;;8.40;99.90;;;;;;5041126;28;20101;-32
2023/04/08 11:11:44;;;;;;;15.32;8.60;;;8.50;99.90;;;;;;5051438;28;20025;-32
2023/04/08 11:14:10;;;;;;;12.00;8.10;;;8.60;99.90;;;;;;5043346;28;20029;-32
2023/04/08 11:16:37;;;;;;;13.55;8.82;;;8.70;99.90;;;;;;5055984;28;20025;-32
2023/04/08 11:19:06;;;;;;;14.23;9.13;;;8.80;99.90;;;;;;5046457;28;20104;-32
2023/04/08 11:21:35;;;;;;;14.13;9.40;;;8.80;99.90;;;;;;5047578;28;20021;-32
2023/04/08 11:24:05;;;;;;;15.60;11.10;;;8.60;99.90;;;;;;5044182;28;20065;-32
2023/04/08 11:26:30;;;;;;;15.07;9.95;;;8.40;99.90;;;;;;5049494;28;20025;-32
2023/04/08 11:28:57;;;;;;;17.73;10.85;;;8.20;99.90;;;;;;5042755;28;20086;-32
2023/04/08 11:31:23;;;;;;;14.10;10.07;;;8.10;99.90;;;;;;5043319;28;20033;-32
2023/04/08 11:33:52;;;;;;;16.65;10.13;;;8.20;99.90;;;;;;5048244;28;20033;-32
2023/04/08 11:36:18;;;;;;;16.35;9.90;;;8.10;99.90;;;;;;5042018;28;20063;-33
2023/04/08 11:38:44;;;;;;;16.60;10.50;;;8.20;99.90;;;;;;5038415;28;20057;-32
2023/04/08 11:41:13;;;;;;;15.88;10.27;;;8.10;99.90;;;;;;5046493;28;20391;-32
2023/04/08 11:43:39;;;;;;;18.40;11.00;;;8.00;99.90;;;;;;5046108;28;20090;-31
2023/04/08 11:46:12;;;;;;;13.90;9.10;;;8.10;99.90;;;;;;5048258;28;20531;-31
2023/04/08 11:48:38;;;;;;;14.98;10.40;;;8.10;99.90;;;;;;5066612;28;20236;-33
2023/04/08 11:51:08;;;;;;;15.75;10.10;;;8.30;99.90;;;;;;5038803;28;20110;-32
2023/04/08 11:53:37;;;;;;;15.82;10.85;;;8.10;99.90;;;;;;5046589;28;20046;-31
2023/04/08 11:56:20;;;;;;;15.98;10.05;;;8.00;99.90;;;;;;5042180;28;20116;-32
2023/04/08 11:58:46;;;;;;;16.88;10.80;;;8.00;99.90;;;;;;5039912;28;20029;-32
2023/04/08 12:01:12;;;;;;;16.95;10.20;;;8.00;99.90;;;;;;5037657;28;20033;-32
2023/04/08 12:03:38;;;;;;;12.63;10.07;;;7.90;99.90;;;;;;5037635;28;21328;-32
2023/04/08 12:06:08;;;;;;;14.95;10.90;;;7.80;99.90;;;;;;5040263;28;20033;-33
2023/04/08 12:08:34;;;;;;;14.95;9.70;;;7.80;99.90;;;;;;5043960;28;20033;-32
2023/04/08 12:11:00;;;;;;;13.60;9.23;;;7.60;99.90;;;;;;5046542;28;20043;-32
2023/04/08 12:13:26;;;;;;;12.85;9.52;;;7.60;99.90;;;;;;5037223;28;20394;-32
2023/04/08 12:15:52;;;;;;;13.48;8.48;;;7.60;99.90;;;;;;5039874;28;20033;-32
2023/04/08 12:18:17;;;;;;;15.00;9.30;;;7.70;99.90;;;;;;5048122;28;20128;-32
2023/04/08 12:20:43;;;;;;;14.80;9.57;;;7.70;99.90;;;;;;5042960;28;20048;-32
2023/04/08 12:23:08;;;;;;;13.32;8.50;;;7.70;99.90;;;;;;5048718;28;20033;-31
2023/04/08 12:25:34;;;;;;;15.25;9.68;;;7.60;99.90;;;;;;5040612;28;20147;-32
2023/04/08 12:28:00;;;;;;;10.38;8.40;;;7.60;99.90;;;;;;5040658;28;20387;-31
2023/04/08 12:30:25;;;;;;;14.77;9.30;;;7.50;99.90;;;;;;5053928;28;20570;-31
2023/04/08 12:32:54;;;;;;;14.70;9.90;;;7.50;99.90;;;;;;5044292;28;20857;-32
2023/04/08 12:35:19;;;;;;;15.20;8.93;;;7.40;99.90;;;;;;5046861;28;20141;-31
2023/04/08 12:37:45;;;;;;;18.10;9.43;;;7.30;99.90;;;;;;5037233;28;20589;-33
2023/04/08 12:40:11;;;;;;;11.75;8.20;;;7.30;99.90;;;;;;5034583;28;20505;-32
2023/04/08 12:42:37;;;;;;;15.50;9.20;;;7.30;99.90;;;;;;5037413;28;20367;-32
2023/04/08 12:45:02;;;;;;;9.75;7.32;;;7.30;99.90;;;;;;5041775;28;20033;-33
2023/04/08 12:47:28;;;;;;;14.65;9.30;;;7.20;99.90;;;;;;5040314;28;20029;-31
2023/04/08 12:49:54;;;;;;;14.55;9.18;;;7.20;99.90;;;;;;5044739;28;20104;-32